createdAt,value
2023-01-08T00:01:36.575Z,3.40
2023-01-08T00:06:39.794Z,3.27
2023-01-08T00:11:47.819Z,5.53
2023-01-08T00:16:58.633Z,4.33
2023-01-08T00:22:04.855Z,3.07
2023-01-08T00:27:09.508Z,3.70
2023-01-08T00:32:15.711Z,4.00
2023-01-08T00:37:20.856Z,4.07
2023-01-08T00:42:24.187Z,4.13
2023-01-08T00:47:36.102Z,2.72
2023-01-08T00:52:42.488Z,4.07
2023-01-08T00:57:50.634Z,3.37
2023-01-08T01:02:58.553Z,3.93
2023-01-08T01:08:07.095Z,3.33
2023-01-08T01:13:13.720Z,3.93
2023-01-08T01:18:26.049Z,3.33
2023-01-08T01:23:31.579Z,3.50
2023-01-08T01:28:39.533Z,4.80
2023-01-08T01:33:48.552Z,2.60
2023-01-08T01:38:58.187Z,4.33
2023-01-08T01:44:48.529Z,3.90
2023-01-08T01:50:03.491Z,4.30
2023-01-08T01:55:20.040Z,3.50
2023-01-08T02:00:29.505Z,4.17
2023-01-08T02:06:07.348Z,3.10
2023-01-08T02:12:17.111Z,3.50
2023-01-08T02:17:47.334Z,3.70
2023-01-08T02:23:33.914Z,3.23
2023-01-08T02:29:04.157Z,4.30
2023-01-08T02:34:18.273Z,3.17
2023-01-08T02:39:39.457Z,3.70
2023-01-08T02:45:22.815Z,3.90
2023-01-08T02:50:34.228Z,4.03
2023-01-08T02:55:47.871Z,3.17
2023-01-08T03:00:52.615Z,3.57
2023-01-08T03:06:13.203Z,2.77
2023-01-08T03:11:39.191Z,3.10
2023-01-08T03:16:56.158Z,3.10
2023-01-08T03:22:08.313Z,3.90
2023-01-08T03:27:24.170Z,3.70
2023-01-08T03:32:35.262Z,3.07
2023-01-08T03:37:55.140Z,3.50
2023-01-08T03:42:58.518Z,3.07
2023-01-08T03:48:07.631Z,3.30
2023-01-08T03:53:15.056Z,3.93
2023-01-08T03:58:18.344Z,4.00
2023-01-08T04:03:30.483Z,2.75
2023-01-08T04:08:40.657Z,3.37
2023-01-08T04:13:56.756Z,3.30
2023-01-08T04:19:02.598Z,4.53
2023-01-08T04:24:09.692Z,4.50
2023-01-08T04:29:23.594Z,3.37
2023-01-08T04:34:26.765Z,2.40
2023-01-08T04:39:33.219Z,4.37
2023-01-08T04:44:44.455Z,2.90
2023-01-08T04:49:52.277Z,3.37
2023-01-08T04:54:55.737Z,3.53
2023-01-08T05:00:06.513Z,3.80
2023-01-08T05:05:26.460Z,4.43
2023-01-08T05:10:35.886Z,3.37
2023-01-08T05:15:45.241Z,3.40
2023-01-08T05:21:02.971Z,3.53
2023-01-08T05:26:14.985Z,3.77
2023-01-08T05:31:23.059Z,3.80
2023-01-08T05:36:41.306Z,4.17
2023-01-08T05:41:44.770Z,3.80
2023-01-08T05:46:48.821Z,3.45
2023-01-08T05:51:52.653Z,4.50
2023-01-08T05:57:09.716Z,4.63
2023-01-08T06:02:13.253Z,4.00
2023-01-08T06:07:21.948Z,3.83
2023-01-08T06:12:28.186Z,3.73
2023-01-08T06:17:41.920Z,4.30
2023-01-08T06:22:48.758Z,4.17
2023-01-08T06:28:03.200Z,4.53
2023-01-08T06:33:09.954Z,5.63
2023-01-08T06:38:18.551Z,4.03
2023-01-08T06:43:24.446Z,4.90
2023-01-08T06:48:31.264Z,4.40
2023-01-08T06:53:48.006Z,4.80
2023-01-08T06:58:54.776Z,4.80
2023-01-08T07:04:07.803Z,5.10
2023-01-08T07:09:15.884Z,5.13
2023-01-08T07:14:21.751Z,5.50
2023-01-08T07:19:33.226Z,4.95
2023-01-08T07:24:43.828Z,5.67
2023-01-08T07:29:52.639Z,6.73
2023-01-08T07:35:01.899Z,12.07
2023-01-08T07:40:07.605Z,12.53
2023-01-08T07:45:19.452Z,7.00
2023-01-08T07:50:27.313Z,7.10
2023-01-08T07:55:48.175Z,5.27
2023-01-08T08:01:01.218Z,6.68
2023-01-08T08:06:07.396Z,6.53
2023-01-08T08:11:18.496Z,6.10
2023-01-08T08:16:31.963Z,5.50
2023-01-08T08:21:55.580Z,6.10
2023-01-08T08:27:03.511Z,6.13
2023-01-08T08:32:11.180Z,8.67
2023-01-08T08:37:18.057Z,7.43
2023-01-08T08:42:31.038Z,7.80
2023-01-08T08:47:39.340Z,5.93
2023-01-08T08:53:01.176Z,5.30
2023-01-08T08:58:14.063Z,5.97
2023-01-08T09:03:23.675Z,5.60
2023-01-08T09:08:35.672Z,6.13
2023-01-08T09:13:45.597Z,7.40
2023-01-08T09:18:54.767Z,7.50
2023-01-08T09:24:03.649Z,7.63
2023-01-08T09:29:14.474Z,6.70
2023-01-08T09:34:18.337Z,6.67
2023-01-08T09:39:26.023Z,5.72
2023-01-08T09:44:36.249Z,6.73
2023-01-08T09:50:03.061Z,6.43
2023-01-08T09:55:32.438Z,5.97
2023-01-08T10:00:42.619Z,6.97
2023-01-08T10:05:52.027Z,5.18
2023-01-08T10:11:03.932Z,6.17
2023-01-08T10:16:37.321Z,5.60
2023-01-08T10:22:20.266Z,5.97
2023-01-08T10:27:29.136Z,5.73
2023-01-08T10:32:47.070Z,6.13
2023-01-08T10:37:56.801Z,6.47
2023-01-08T10:43:22.847Z,8.07
2023-01-08T10:48:51.056Z,5.80
2023-01-08T10:54:15.830Z,6.77
2023-01-08T10:59:35.469Z,6.37
2023-01-08T11:04:54.204Z,6.13
2023-01-08T11:10:05.409Z,8.33
2023-01-08T11:15:26.010Z,6.70
2023-01-08T11:20:33.524Z,6.27
2023-01-08T11:26:16.285Z,4.53
2023-01-08T11:31:36.062Z,6.97
2023-01-08T11:37:15.257Z,6.40
2023-01-08T11:42:57.043Z,6.33
2023-01-08T11:48:34.129Z,7.27
2023-01-08T11:54:32.142Z,6.23
2023-01-08T12:00:14.405Z,5.77
2023-01-08T12:05:46.749Z,6.10
2023-01-08T12:11:34.709Z,5.27
2023-01-08T12:17:24.752Z,6.00
2023-01-08T12:22:39.026Z,6.73
2023-01-08T12:28:19.266Z,5.80
2023-01-08T12:33:39.031Z,7.07
2023-01-08T12:38:51.731Z,5.63
2023-01-08T12:44:12.429Z,6.33
2023-01-08T12:49:36.095Z,6.23
2023-01-08T12:54:56.888Z,6.87
2023-01-08T13:00:34.087Z,6.67
2023-01-08T13:05:52.548Z,12.83
2023-01-08T13:11:05.649Z,11.32
2023-01-08T13:16:26.948Z,7.37
2023-01-08T13:22:06.345Z,7.30
2023-01-08T13:27:22.197Z,6.78
2023-01-08T13:32:51.088Z,7.07
2023-01-08T13:38:22.362Z,6.90
2023-01-08T13:43:41.270Z,7.47
2023-01-08T13:49:38.800Z,7.00
2023-01-08T13:54:45.784Z,8.67
2023-01-08T13:59:59.514Z,7.00
2023-01-08T14:05:12.551Z,7.20
2023-01-08T14:10:17.953Z,8.67
2023-01-08T14:15:36.519Z,6.73
2023-01-08T14:20:42.623Z,6.43
2023-01-08T14:25:53.129Z,6.90
2023-01-08T14:31:06.146Z,8.50
2023-01-08T14:36:16.969Z,8.50
2023-01-08T14:41:55.173Z,7.17
2023-01-08T14:47:04.044Z,8.10
2023-01-08T14:52:18.820Z,7.27
2023-01-08T14:57:34.107Z,8.23
2023-01-08T15:02:43.033Z,8.17
2023-01-08T15:08:22.005Z,8.40
2023-01-08T15:13:41.624Z,7.43
2023-01-08T15:19:17.720Z,8.33
2023-01-08T15:24:45.342Z,7.33
2023-01-08T15:30:01.816Z,6.97
2023-01-08T15:35:21.391Z,7.70
2023-01-08T15:40:26.848Z,7.77
2023-01-08T15:45:34.608Z,7.90
2023-01-08T15:50:42.809Z,8.03
2023-01-08T15:55:55.848Z,8.63
2023-01-08T16:01:10.212Z,7.53
2023-01-08T16:06:28.663Z,7.27
2023-01-08T16:11:42.247Z,8.10
2023-01-08T16:16:52.990Z,7.60
2023-01-08T16:22:00.366Z,8.50
2023-01-08T16:27:07.244Z,7.60
2023-01-08T16:32:11.474Z,8.23
2023-01-08T16:37:17.679Z,7.57
2023-01-08T16:42:26.185Z,8.47
2023-01-08T16:47:36.958Z,8.30
2023-01-08T16:57:55.544Z,7.70
2023-01-08T17:03:09.876Z,8.20
2023-01-08T17:08:23.229Z,9.20
2023-01-08T17:13:29.207Z,9.27
2023-01-08T17:18:40.059Z,8.60
2023-01-08T17:23:53.504Z,9.50
2023-01-08T17:29:03.220Z,7.53
2023-01-08T17:34:15.049Z,8.63
2023-01-08T17:39:25.005Z,10.77
2023-01-08T17:44:33.153Z,9.23
2023-01-08T17:49:45.660Z,11.13
2023-01-08T17:55:10.519Z,10.77
2023-01-08T18:00:25.551Z,8.13
2023-01-08T18:05:34.888Z,8.67
2023-01-08T18:10:49.163Z,9.70
2023-01-08T18:16:16.067Z,9.00
2023-01-08T18:21:28.085Z,8.38
2023-01-08T18:26:43.183Z,9.03
2023-01-08T18:31:46.814Z,9.07
2023-01-08T18:36:49.471Z,8.87
2023-01-08T18:42:10.975Z,8.23
2023-01-08T18:47:14.875Z,7.63
2023-01-08T18:52:17.414Z,8.32
2023-01-08T18:57:20.216Z,9.10
2023-01-08T19:02:28.102Z,10.00
2023-01-08T19:07:32.144Z,9.37
2023-01-08T19:12:35.158Z,11.90
2023-01-08T19:17:37.757Z,8.70
2023-01-08T19:22:40.373Z,8.87
2023-01-08T19:27:43.009Z,8.20
2023-01-08T19:32:47.588Z,7.60
2023-01-08T19:37:50.202Z,8.30
2023-01-08T19:43:11.159Z,9.50
2023-01-08T19:48:14.129Z,10.73
2023-01-08T19:53:16.755Z,9.43
2023-01-08T19:58:20.506Z,8.73
2023-01-08T20:03:29.340Z,9.35
2023-01-08T20:08:31.928Z,7.73
2023-01-08T20:13:36.202Z,8.53
2023-01-08T20:18:40.435Z,8.43
2023-01-08T20:23:44.751Z,8.45
2023-01-08T20:28:49.253Z,9.43
2023-01-08T20:38:59.451Z,8.63
2023-01-08T20:44:06.712Z,9.10
2023-01-08T20:49:14.420Z,8.50
2023-01-08T20:54:17.927Z,8.85
2023-01-08T20:59:20.498Z,8.30
2023-01-08T21:04:23.336Z,7.63
2023-01-08T21:09:25.980Z,8.70
2023-01-08T21:14:28.542Z,7.93
2023-01-08T21:19:31.391Z,8.68
2023-01-08T21:24:34.243Z,7.53
2023-01-08T21:29:36.900Z,8.27
2023-01-08T21:34:39.514Z,8.90
2023-01-08T21:39:43.259Z,8.13
2023-01-08T21:45:04.327Z,8.70
2023-01-08T21:50:08.529Z,8.83
2023-01-08T21:55:11.407Z,7.90
2023-01-08T22:00:15.315Z,8.00
2023-01-08T22:05:18.361Z,8.95
2023-01-08T22:10:21.348Z,7.30
2023-01-08T22:15:23.963Z,8.57
2023-01-08T22:20:26.613Z,8.02
2023-01-08T22:25:30.295Z,8.48
2023-01-08T22:30:33.937Z,9.30
2023-01-08T22:35:38.533Z,8.60
2023-01-08T22:45:43.558Z,9.05
2023-01-08T22:50:46.264Z,7.03
2023-01-08T22:55:49.160Z,10.10
2023-01-08T23:00:51.783Z,7.10
2023-01-08T23:06:04.355Z,7.63
2023-01-08T23:11:08.733Z,7.32
2023-01-08T23:16:14.372Z,7.78
2023-01-08T23:21:21.966Z,6.80
2023-01-08T23:26:29.682Z,8.30
2023-01-08T23:31:32.560Z,6.68
2023-01-08T23:36:35.628Z,7.93
2023-01-08T23:41:39.109Z,7.13
2023-01-08T23:46:41.686Z,6.43
2023-01-08T23:51:44.241Z,6.38
2023-01-08T23:56:46.822Z,7.47
